Terminal Aerodrome Forecast
Issued by NWS

Home | Current Version | Previous Version | Text Only | Print | Product List | Glossary On
Versions: 1 2 3 4 5 6 7 8 9 10 11 12 13 14
740
FTUS45 KPSR 022320
TAFBLH
TAF
KBLH 022320Z 0300/0324 35017G25KT P6SM FEW100
     FM030700 35022G32KT P6SM SKC=

USA.gov is the U.S. government's official web portal to all federal, state and local government web resources and services.